createdAt,value
2018-04-27T00:00:51.534Z,4.20
2018-04-27T00:03:18.421Z,3.57
2018-04-27T00:05:44.610Z,4.50
2018-04-27T00:08:10.777Z,4.20
2018-04-27T00:10:37.047Z,4.30
2018-04-27T00:13:03.309Z,4.20
2018-04-27T00:15:29.516Z,4.43
2018-04-27T00:17:55.834Z,4.80
2018-04-27T00:20:21.970Z,3.90
2018-04-27T00:22:48.114Z,4.60
2018-04-27T00:25:15.108Z,4.50
2018-04-27T00:27:41.295Z,4.90
2018-04-27T00:30:07.442Z,4.37
2018-04-27T00:32:33.714Z,3.67
2018-04-27T00:34:59.857Z,4.30
2018-04-27T00:37:25.989Z,4.10
2018-04-27T00:39:52.121Z,5.07
2018-04-27T00:42:18.318Z,3.80
2018-04-27T00:44:44.558Z,4.13
2018-04-27T00:47:11.421Z,3.70
2018-04-27T00:49:37.602Z,3.60
2018-04-27T00:52:03.725Z,5.03
2018-04-27T00:54:30.038Z,4.17
2018-04-27T00:56:56.183Z,4.40
2018-04-27T00:59:22.425Z,3.70
2018-04-27T01:01:49.310Z,4.23
2018-04-27T01:04:15.457Z,4.17
2018-04-27T01:06:42.761Z,4.03
2018-04-27T01:09:09.637Z,4.10
2018-04-27T01:11:35.751Z,3.80
2018-04-27T01:14:01.913Z,3.70
2018-04-27T01:16:28.061Z,3.93
2018-04-27T01:18:54.223Z,4.53
2018-04-27T01:21:21.161Z,5.37
2018-04-27T01:23:47.294Z,3.80
2018-04-27T01:26:13.423Z,3.80
2018-04-27T01:28:39.585Z,4.27
2018-04-27T01:31:06.470Z,4.10
2018-04-27T01:33:32.601Z,4.50
2018-04-27T01:35:58.812Z,4.57
2018-04-27T01:38:24.969Z,4.93
2018-04-27T01:40:51.105Z,4.20
2018-04-27T01:43:17.227Z,4.90
2018-04-27T01:45:43.405Z,5.23
2018-04-27T01:48:09.557Z,5.00
2018-04-27T01:50:35.708Z,5.13
2018-04-27T01:53:01.861Z,5.27
2018-04-27T01:55:27.984Z,5.23
2018-04-27T01:57:54.130Z,4.57
2018-04-27T02:00:20.267Z,4.30
2018-04-27T02:02:46.418Z,5.70
2018-04-27T02:05:12.832Z,4.90
2018-04-27T02:07:39.170Z,4.90
2018-04-27T02:10:05.374Z,5.90
2018-04-27T02:12:31.525Z,5.27
2018-04-27T02:14:57.662Z,5.33
2018-04-27T02:17:23.803Z,5.30
2018-04-27T02:19:49.953Z,5.70
2018-04-27T02:22:16.093Z,6.30
2018-04-27T02:24:43.042Z,6.90
2018-04-27T02:27:10.087Z,5.83
2018-04-27T02:29:36.966Z,5.83
2018-04-27T02:32:03.849Z,5.50
2018-04-27T02:34:30.031Z,6.00
2018-04-27T02:36:56.303Z,6.53
2018-04-27T02:39:22.426Z,5.30
2018-04-27T02:41:48.545Z,6.70
2018-04-27T02:44:15.413Z,5.87
2018-04-27T02:46:41.555Z,6.20
2018-04-27T02:49:07.690Z,5.40
2018-04-27T02:51:33.965Z,7.50
2018-04-27T02:54:00.271Z,6.57
2018-04-27T02:56:26.474Z,5.60
2018-04-27T02:58:53.450Z,7.47
2018-04-27T03:01:19.638Z,6.00
2018-04-27T03:03:45.885Z,6.30
2018-04-27T03:06:12.085Z,6.13
2018-04-27T03:08:38.351Z,5.63
2018-04-27T03:11:04.466Z,6.57
2018-04-27T03:13:31.342Z,6.17
2018-04-27T03:15:57.513Z,6.90
2018-04-27T03:18:23.702Z,6.40
2018-04-27T03:20:50.730Z,6.70
2018-04-27T03:23:38.739Z,6.40
2018-04-27T03:26:04.933Z,6.70
2018-04-27T03:28:31.718Z,7.33
2018-04-27T03:31:00.051Z,7.90
2018-04-27T03:33:26.161Z,6.83
2018-04-27T03:35:52.326Z,6.57
2018-04-27T03:38:18.446Z,7.03
2018-04-27T03:40:44.590Z,6.40
2018-04-27T03:43:10.713Z,7.00
2018-04-27T03:45:37.054Z,7.40
2018-04-27T03:48:03.221Z,7.30
2018-04-27T03:50:29.379Z,6.50
2018-04-27T03:52:56.230Z,6.17
2018-04-27T03:55:22.353Z,7.40
2018-04-27T03:57:49.374Z,7.60
2018-04-27T04:00:28.185Z,7.43
2018-04-27T04:03:06.390Z,6.10
2018-04-27T04:05:32.664Z,6.97
2018-04-27T04:07:58.813Z,6.50
2018-04-27T04:10:25.015Z,7.13
2018-04-27T04:12:51.162Z,6.73
2018-04-27T04:15:17.306Z,7.40
2018-04-27T04:17:43.443Z,6.03
2018-04-27T04:20:09.570Z,7.97
2018-04-27T04:22:35.689Z,7.27
2018-04-27T04:25:01.815Z,7.17
2018-04-27T04:27:28.010Z,7.50
2018-04-27T04:29:54.156Z,7.40
2018-04-27T04:32:20.348Z,6.40
2018-04-27T04:34:47.161Z,7.30
2018-04-27T04:37:13.470Z,7.10
2018-04-27T04:39:40.358Z,8.03
2018-04-27T04:42:07.347Z,8.03
2018-04-27T04:44:33.595Z,7.13
2018-04-27T04:46:59.917Z,7.47
2018-04-27T04:49:26.817Z,7.87
2018-04-27T04:51:53.005Z,8.87
2018-04-27T04:54:19.173Z,8.27
2018-04-27T04:56:45.374Z,10.07
2018-04-27T04:59:11.577Z,9.20
2018-04-27T05:01:37.695Z,7.00
2018-04-27T05:04:03.842Z,7.60
2018-04-27T05:06:29.974Z,8.80
2018-04-27T05:08:56.639Z,7.60
2018-04-27T05:11:22.791Z,8.83
2018-04-27T05:13:48.991Z,7.63
2018-04-27T05:16:15.147Z,7.90
2018-04-27T05:18:52.549Z,8.30
2018-04-27T05:21:18.723Z,8.83
2018-04-27T05:23:45.601Z,8.43
2018-04-27T05:26:11.766Z,7.90
2018-04-27T05:28:37.909Z,7.80
2018-04-27T05:31:16.386Z,8.60
2018-04-27T05:33:42.577Z,9.47
2018-04-27T05:36:08.725Z,8.97
2018-04-27T05:38:35.698Z,8.70
2018-04-27T05:41:01.846Z,7.57
2018-04-27T05:43:27.994Z,8.57
2018-04-27T05:45:54.149Z,7.87
2018-04-27T05:48:20.340Z,7.70
2018-04-27T05:50:46.519Z,8.07
2018-04-27T05:53:12.706Z,7.23
2018-04-27T05:55:38.897Z,9.67
2018-04-27T05:58:05.009Z,7.30
2018-04-27T06:00:31.185Z,7.60
2018-04-27T06:02:57.353Z,7.80
2018-04-27T06:05:23.537Z,8.63
2018-04-27T06:07:49.848Z,7.00
2018-04-27T06:10:16.004Z,7.07
2018-04-27T06:12:42.225Z,7.60
2018-04-27T06:15:08.615Z,8.03
2018-04-27T06:17:35.476Z,6.60
2018-04-27T06:20:01.715Z,6.90
2018-04-27T06:22:27.853Z,7.87
2018-04-27T06:24:54.007Z,6.80
2018-04-27T06:27:20.150Z,6.80
2018-04-27T06:29:46.325Z,7.70
2018-04-27T06:32:12.513Z,7.40
2018-04-27T06:34:38.645Z,8.00
2018-04-27T06:37:04.787Z,6.67
2018-04-27T06:39:31.029Z,7.70
2018-04-27T06:41:57.137Z,7.00
2018-04-27T06:44:23.384Z,7.93
2018-04-27T06:46:49.575Z,7.33
2018-04-27T06:49:15.708Z,7.47
2018-04-27T06:51:42.046Z,7.57
2018-04-27T06:54:08.250Z,9.67
2018-04-27T06:56:34.511Z,7.73
2018-04-27T06:59:00.665Z,7.57
2018-04-27T07:01:26.809Z,7.33
2018-04-27T07:03:53.026Z,7.67
2018-04-27T07:06:19.189Z,8.20
2018-04-27T07:08:45.347Z,8.20
2018-04-27T07:11:11.493Z,8.27
2018-04-27T07:13:38.413Z,8.70
2018-04-27T07:16:04.529Z,9.87
2018-04-27T07:18:30.795Z,8.80
2018-04-27T07:20:57.017Z,9.63
2018-04-27T07:23:23.146Z,10.53
2018-04-27T07:25:49.380Z,10.87
2018-04-27T07:28:15.503Z,9.80
2018-04-27T07:30:41.661Z,9.50
2018-04-27T07:33:07.853Z,8.23
2018-04-27T07:35:34.052Z,8.70
2018-04-27T07:38:00.202Z,9.40
2018-04-27T07:40:27.094Z,9.33
2018-04-27T07:42:53.286Z,9.63
2018-04-27T07:45:19.847Z,9.50
2018-04-27T07:47:45.914Z,9.57
2018-04-27T07:50:12.338Z,9.50
2018-04-27T07:52:38.542Z,10.00
2018-04-27T07:55:04.706Z,10.23
2018-04-27T07:57:30.922Z,10.07
2018-04-27T07:59:57.211Z,11.00
2018-04-27T08:02:24.226Z,9.90
2018-04-27T08:04:51.126Z,9.80
2018-04-27T08:07:17.324Z,9.40
2018-04-27T08:09:43.485Z,9.00
2018-04-27T08:12:09.712Z,9.30
2018-04-27T08:14:35.994Z,10.20
2018-04-27T08:17:02.174Z,9.40
2018-04-27T08:19:28.367Z,9.80
2018-04-27T08:21:54.529Z,11.60
2018-04-27T08:24:20.710Z,9.47
2018-04-27T08:26:46.907Z,8.80
2018-04-27T08:29:13.088Z,9.20
2018-04-27T08:31:39.273Z,10.20
2018-04-27T08:34:06.257Z,10.47
2018-04-27T08:36:32.413Z,10.40
2018-04-27T08:38:58.539Z,11.57
2018-04-27T08:41:24.710Z,10.77
2018-04-27T08:43:51.298Z,10.83
2018-04-27T08:46:17.406Z,10.53
2018-04-27T08:48:43.530Z,11.13
2018-04-27T08:51:09.681Z,11.50
2018-04-27T08:53:35.833Z,10.37
2018-04-27T08:56:01.989Z,11.67
2018-04-27T08:58:28.116Z,9.03
2018-04-27T09:00:54.266Z,10.23
2018-04-27T09:03:20.413Z,10.33
2018-04-27T09:05:46.620Z,9.23
2018-04-27T09:08:12.899Z,10.73
2018-04-27T09:10:39.126Z,9.80
2018-04-27T09:13:06.181Z,10.57
2018-04-27T09:15:32.346Z,10.27
2018-04-27T09:18:00.521Z,10.93
2018-04-27T09:20:27.442Z,9.00
2018-04-27T09:22:53.606Z,11.00
2018-04-27T09:25:19.853Z,10.17
2018-04-27T09:27:46.013Z,8.60
2018-04-27T09:30:13.097Z,8.57
2018-04-27T09:32:40.024Z,11.60
2018-04-27T09:35:06.326Z,12.13
2018-04-27T09:37:32.534Z,11.10
2018-04-27T09:39:58.683Z,10.70
2018-04-27T09:42:24.824Z,10.60
2018-04-27T09:44:51.074Z,10.70
2018-04-27T09:47:17.230Z,9.23
2018-04-27T09:49:43.509Z,10.17
2018-04-27T09:52:09.766Z,9.40
2018-04-27T09:54:35.905Z,8.43
2018-04-27T09:57:02.060Z,7.30
2018-04-27T09:59:28.239Z,8.17
2018-04-27T10:01:54.453Z,7.03
2018-04-27T10:04:20.578Z,6.27
2018-04-27T10:06:46.794Z,8.60
2018-04-27T10:09:13.069Z,8.40
2018-04-27T10:11:39.229Z,8.37
2018-04-27T10:14:05.367Z,8.10
2018-04-27T10:16:32.363Z,7.93
2018-04-27T10:18:58.535Z,7.10
2018-04-27T10:21:24.956Z,6.90
2018-04-27T10:23:51.107Z,7.53
2018-04-27T10:26:20.269Z,8.27
2018-04-27T10:28:46.526Z,6.70
2018-04-27T10:31:12.674Z,7.80
2018-04-27T10:33:39.548Z,7.90
2018-04-27T10:36:06.437Z,7.90
2018-04-27T10:38:32.765Z,7.33
2018-04-27T10:40:58.894Z,7.43
2018-04-27T10:43:25.046Z,6.90
2018-04-27T10:45:51.299Z,7.30
2018-04-27T10:48:18.214Z,6.70
2018-04-27T10:50:44.545Z,5.67
2018-04-27T10:53:10.706Z,4.57
2018-04-27T10:55:37.659Z,4.83
2018-04-27T10:58:04.577Z,4.60
2018-04-27T11:00:30.791Z,6.23
2018-04-27T11:02:56.962Z,5.67
2018-04-27T11:05:23.865Z,4.63
2018-04-27T11:07:50.026Z,4.83
2018-04-27T11:10:16.173Z,5.40
2018-04-27T11:12:43.138Z,4.70
2018-04-27T11:15:09.342Z,4.83
2018-04-27T11:17:35.619Z,5.70
2018-04-27T11:20:01.783Z,6.10
2018-04-27T11:22:27.930Z,5.50
2018-04-27T11:24:54.157Z,5.90
2018-04-27T11:27:20.402Z,5.30
2018-04-27T11:29:46.554Z,5.70
2018-04-27T11:32:12.681Z,5.67
2018-04-27T11:34:39.582Z,6.50
2018-04-27T11:37:05.769Z,7.20
2018-04-27T11:39:31.981Z,5.50
2018-04-27T11:41:58.845Z,5.60
2018-04-27T11:44:25.868Z,5.63
2018-04-27T11:46:52.014Z,6.37
2018-04-27T11:49:18.894Z,5.03
2018-04-27T11:51:45.211Z,5.00
2018-04-27T11:54:11.436Z,5.20
2018-04-27T11:56:37.674Z,4.50
2018-04-27T11:59:03.852Z,4.20
2018-04-27T12:01:30.113Z,4.47
2018-04-27T12:03:56.290Z,4.07
2018-04-27T12:06:22.472Z,4.30
2018-04-27T12:08:48.722Z,4.90
2018-04-27T12:11:15.727Z,4.90
2018-04-27T12:13:41.900Z,4.00
2018-04-27T12:16:08.107Z,3.90
2018-04-27T12:18:34.717Z,4.13
2018-04-27T12:21:00.860Z,5.00
2018-04-27T12:23:27.107Z,4.67
2018-04-27T12:25:53.321Z,5.10
2018-04-27T12:28:19.528Z,5.70
2018-04-27T12:30:46.456Z,5.57
2018-04-27T12:33:12.726Z,5.20
2018-04-27T12:35:39.649Z,6.10
2018-04-27T12:38:05.981Z,6.23
2018-04-27T12:40:32.139Z,6.30
2018-04-27T12:42:58.316Z,5.10
2018-04-27T12:45:24.683Z,5.07
2018-04-27T12:47:50.958Z,4.90
2018-04-27T12:50:17.137Z,4.90
2018-04-27T12:52:43.390Z,4.30
2018-04-27T12:55:09.559Z,4.83
2018-04-27T12:57:36.542Z,4.23
2018-04-27T13:00:02.705Z,3.70
2018-04-27T13:02:29.158Z,6.20
2018-04-27T13:04:55.312Z,4.67
2018-04-27T13:07:21.439Z,4.80
2018-04-27T13:09:47.659Z,6.17
2018-04-27T13:12:14.565Z,5.30
2018-04-27T13:14:40.741Z,6.17
2018-04-27T13:17:07.698Z,6.93
2018-04-27T13:19:35.187Z,6.03
2018-04-27T13:22:01.319Z,7.00
2018-04-27T13:24:27.485Z,5.93
2018-04-27T13:26:53.721Z,7.00
2018-04-27T13:29:19.862Z,6.70
2018-04-27T13:31:46.802Z,6.00
2018-04-27T13:34:13.033Z,5.90
2018-04-27T13:36:39.157Z,5.20
2018-04-27T13:39:05.317Z,5.23
2018-04-27T13:41:32.269Z,5.70
2018-04-27T13:43:58.831Z,6.10
2018-04-27T13:46:25.707Z,6.57
2018-04-27T13:48:51.918Z,7.10
2018-04-27T13:51:18.070Z,6.40
2018-04-27T13:53:44.330Z,6.03
2018-04-27T13:56:10.609Z,6.07
2018-04-27T13:58:36.801Z,6.50
2018-04-27T14:01:03.735Z,5.40
2018-04-27T14:03:29.906Z,5.27
2018-04-27T14:05:56.115Z,5.33
2018-04-27T14:08:22.318Z,5.67
2018-04-27T14:10:48.490Z,4.57
2018-04-27T14:13:14.697Z,3.70
2018-04-27T14:15:40.916Z,3.10
2018-04-27T14:18:08.005Z,3.90
2018-04-27T14:20:34.808Z,3.30
2018-04-27T14:23:00.961Z,3.40
2018-04-27T14:25:27.157Z,3.20
2018-04-27T14:27:53.750Z,3.27
2018-04-27T14:30:21.117Z,3.27
2018-04-27T14:32:48.117Z,2.90
2018-04-27T14:35:14.627Z,2.97
2018-04-27T14:37:41.048Z,3.10
2018-04-27T14:40:07.250Z,3.07
2018-04-27T14:42:33.599Z,2.50
2018-04-27T14:45:00.526Z,3.10
2018-04-27T14:47:27.162Z,3.03
2018-04-27T14:49:53.417Z,3.77
2018-04-27T14:52:19.665Z,3.17
2018-04-27T14:54:46.737Z,3.30
2018-04-27T14:57:13.001Z,3.50
2018-04-27T14:59:39.402Z,3.40
2018-04-27T15:02:06.333Z,3.13
2018-04-27T15:04:33.625Z,2.50
2018-04-27T15:06:59.972Z,2.93
2018-04-27T15:09:26.155Z,3.20
2018-04-27T15:11:54.118Z,3.20
2018-04-27T15:14:21.038Z,3.40
2018-04-27T15:16:47.223Z,3.80
2018-04-27T15:19:13.421Z,3.80
2018-04-27T15:21:39.781Z,3.70
2018-04-27T15:24:06.154Z,3.73
2018-04-27T15:26:32.378Z,3.77
2018-04-27T15:28:58.614Z,3.77
2018-04-27T15:31:24.825Z,3.40
2018-04-27T15:33:51.191Z,3.90
2018-04-27T15:36:18.140Z,4.70
2018-04-27T15:38:44.413Z,4.57
2018-04-27T15:41:10.741Z,3.57
2018-04-27T15:43:37.752Z,3.60
2018-04-27T15:46:04.067Z,3.50
2018-04-27T15:48:30.241Z,3.57
2018-04-27T15:50:57.163Z,4.47
2018-04-27T15:53:24.400Z,4.93
2018-04-27T15:55:50.739Z,4.77
2018-04-27T15:58:16.936Z,3.30
2018-04-27T16:00:43.236Z,3.23
2018-04-27T16:03:10.399Z,3.47
2018-04-27T16:05:37.595Z,4.00
2018-04-27T16:08:06.752Z,3.33
2018-04-27T16:10:36.019Z,4.23
2018-04-27T16:16:21.805Z,4.10
2018-04-27T16:18:51.639Z,3.50
2018-04-27T16:21:18.243Z,3.50
2018-04-27T16:23:44.753Z,3.87
2018-04-27T16:26:16.763Z,3.57
2018-04-27T16:28:43.258Z,3.70
2018-04-27T16:31:09.624Z,3.90
2018-04-27T16:33:36.602Z,3.63
2018-04-27T16:36:02.956Z,4.00
2018-04-27T16:38:29.732Z,4.67
2018-04-27T16:40:56.935Z,4.07
2018-04-27T16:43:23.182Z,3.60
2018-04-27T16:45:49.905Z,3.10
2018-04-27T16:48:16.583Z,3.30
2018-04-27T16:50:42.847Z,3.50
2018-04-27T16:53:09.988Z,3.70
2018-04-27T16:55:42.638Z,3.47
2018-04-27T16:58:09.682Z,3.50
2018-04-27T17:00:35.925Z,3.57
2018-04-27T17:03:02.172Z,3.10
2018-04-27T17:05:29.145Z,3.00
2018-04-27T17:07:55.466Z,3.10
2018-04-27T17:10:21.763Z,2.90
2018-04-27T17:12:48.006Z,3.93
2018-04-27T17:15:15.391Z,3.77
2018-04-27T17:17:41.764Z,2.77
2018-04-27T17:20:08.000Z,3.20
2018-04-27T17:22:34.396Z,3.43
2018-04-27T17:25:00.583Z,3.37
2018-04-27T17:27:26.932Z,3.40
2018-04-27T17:29:53.180Z,3.30
2018-04-27T17:32:19.729Z,3.37
2018-04-27T17:34:45.977Z,3.60
2018-04-27T17:37:12.436Z,3.30
2018-04-27T17:39:38.622Z,3.03
2018-04-27T17:42:04.875Z,3.47
2018-04-27T17:44:31.229Z,3.70
2018-04-27T17:46:57.510Z,3.37
2018-04-27T17:49:23.792Z,2.90
2018-04-27T17:51:50.767Z,3.03
2018-04-27T17:54:17.113Z,3.20
2018-04-27T17:56:43.390Z,3.00
2018-04-27T17:59:09.672Z,3.17
2018-04-27T18:01:35.925Z,3.00
2018-04-27T18:04:02.172Z,2.93
2018-04-27T18:06:28.440Z,3.60
2018-04-27T18:08:54.700Z,2.97
2018-04-27T18:11:21.048Z,3.47
2018-04-27T18:13:47.295Z,3.10
2018-04-27T18:16:13.576Z,3.40
2018-04-27T18:18:39.840Z,2.97
2018-04-27T18:21:06.113Z,3.60
2018-04-27T18:23:33.076Z,3.50
2018-04-27T18:25:59.344Z,3.40
2018-04-27T18:28:25.701Z,3.50
2018-04-27T18:30:51.952Z,4.20
2018-04-27T18:33:18.202Z,2.90
2018-04-27T18:35:45.161Z,3.73
2018-04-27T18:38:11.503Z,4.07
2018-04-27T18:40:37.745Z,3.97
2018-04-27T18:43:04.001Z,4.43
2018-04-27T18:45:30.381Z,4.00
2018-04-27T18:47:56.624Z,4.40
2018-04-27T18:50:23.828Z,4.40
2018-04-27T18:52:50.870Z,4.50
2018-04-27T18:55:17.891Z,4.10
2018-04-27T18:57:44.204Z,3.87
2018-04-27T19:00:10.432Z,4.50
2018-04-27T19:02:36.788Z,5.13
2018-04-27T19:05:03.088Z,4.27
2018-04-27T19:07:29.324Z,11.80
2018-04-27T19:09:55.612Z,9.70
2018-04-27T19:12:22.609Z,10.83
2018-04-27T19:14:48.988Z,10.40
2018-04-27T19:17:16.006Z,8.40
2018-04-27T19:19:42.256Z,6.23
2018-04-27T19:22:09.240Z,6.27
2018-04-27T19:24:39.112Z,5.73
2018-04-27T19:27:05.359Z,6.20
2018-04-27T19:29:31.637Z,6.70
2018-04-27T19:31:57.944Z,6.97
2018-04-27T19:34:24.234Z,5.80
2018-04-27T19:36:50.620Z,5.07
2018-04-27T19:39:16.891Z,5.33
2018-04-27T19:41:43.157Z,7.30
2018-04-27T19:44:09.417Z,8.27
2018-04-27T19:46:35.823Z,8.43
2018-04-27T19:49:02.103Z,7.70
2018-04-27T19:51:28.376Z,7.87
2018-04-27T19:53:54.631Z,7.27
2018-04-27T19:56:20.891Z,7.20
2018-04-27T19:58:47.432Z,6.60
2018-04-27T20:01:14.150Z,6.20
2018-04-27T20:03:40.457Z,6.00
2018-04-27T20:06:06.699Z,6.97
2018-04-27T20:08:34.040Z,5.73
2018-04-27T20:11:00.666Z,8.07
2018-04-27T20:13:26.986Z,7.50
2018-04-27T20:15:57.098Z,7.30
2018-04-27T20:18:27.292Z,6.93
2018-04-27T20:20:55.161Z,7.70
2018-04-27T20:23:24.427Z,7.87
2018-04-27T20:25:50.743Z,7.10
2018-04-27T20:28:16.990Z,6.53
2018-04-27T20:30:43.315Z,6.30
2018-04-27T20:33:13.383Z,6.37
2018-04-27T20:35:39.712Z,6.00
2018-04-27T20:38:06.072Z,6.47
2018-04-27T20:40:33.069Z,6.57
2018-04-27T20:43:05.432Z,6.00
2018-04-27T20:45:31.722Z,6.43
2018-04-27T20:47:58.712Z,6.00
2018-04-27T20:50:25.079Z,5.70
2018-04-27T20:52:51.396Z,5.30
2018-04-27T20:55:17.665Z,6.73
2018-04-27T20:57:45.681Z,5.80
2018-04-27T21:00:11.952Z,5.43
2018-04-27T21:02:41.904Z,5.90
2018-04-27T21:05:08.198Z,5.97
2018-04-27T21:07:35.329Z,5.90
2018-04-27T21:10:01.575Z,5.60
2018-04-27T21:12:32.084Z,5.83
2018-04-27T21:14:58.334Z,6.10
2018-04-27T21:17:25.782Z,6.43
2018-04-27T21:19:52.090Z,6.10
2018-04-27T21:22:18.467Z,6.27
2018-04-27T21:24:44.857Z,6.13
2018-04-27T21:27:11.140Z,6.40
2018-04-27T21:29:37.400Z,6.30
2018-04-27T21:32:05.089Z,8.03
2018-04-27T21:34:31.372Z,6.00
2018-04-27T21:36:58.512Z,7.30
2018-04-27T21:39:28.870Z,6.40
2018-04-27T21:41:56.904Z,7.07
2018-04-27T21:44:29.972Z,6.80
2018-04-27T21:47:02.032Z,6.40
2018-04-27T21:49:29.037Z,7.10
2018-04-27T21:51:56.294Z,6.53
2018-04-27T21:54:23.443Z,7.60
2018-04-27T22:00:00.977Z,6.17
2018-04-27T22:02:27.993Z,6.30
2018-04-27T22:04:54.179Z,6.03
2018-04-27T22:07:23.285Z,6.70
2018-04-27T22:09:50.298Z,6.47
2018-04-27T22:12:17.517Z,6.77
2018-04-27T22:14:43.662Z,6.60
2018-04-27T22:17:09.809Z,6.67
2018-04-27T22:19:35.957Z,6.57
2018-04-27T22:22:02.120Z,8.93
2018-04-27T22:24:28.281Z,6.77
2018-04-27T22:26:55.239Z,6.07
2018-04-27T22:29:34.933Z,6.20
2018-04-27T22:32:06.672Z,6.20
2018-04-27T22:34:34.657Z,6.90
2018-04-27T22:37:00.846Z,7.60
2018-04-27T22:42:23.995Z,6.03
2018-04-27T22:45:12.821Z,5.90
2018-04-27T22:47:38.969Z,6.03
2018-04-27T22:50:05.283Z,6.70
2018-04-27T22:52:33.094Z,6.30
2018-04-27T22:55:00.046Z,5.67
2018-04-27T22:57:27.817Z,6.97
2018-04-27T22:59:55.721Z,6.60
2018-04-27T23:02:21.905Z,5.77
2018-04-27T23:04:52.926Z,6.43
2018-04-27T23:07:24.189Z,6.10
2018-04-27T23:09:50.382Z,6.00
2018-04-27T23:12:16.535Z,6.23
2018-04-27T23:14:42.677Z,5.10
2018-04-27T23:17:11.321Z,6.00
2018-04-27T23:19:44.237Z,5.80
2018-04-27T23:22:23.455Z,5.90
2018-04-27T23:24:50.733Z,6.40
2018-04-27T23:27:17.609Z,6.30
2018-04-27T23:29:43.767Z,5.57
2018-04-27T23:32:10.253Z,6.50
2018-04-27T23:34:36.585Z,6.47
2018-04-27T23:37:03.466Z,5.73
2018-04-27T23:39:29.678Z,6.23
2018-04-27T23:41:56.577Z,7.20
2018-04-27T23:44:22.856Z,6.53
2018-04-27T23:46:49.811Z,6.70
2018-04-27T23:49:15.973Z,5.90
2018-04-27T23:51:42.249Z,6.10
2018-04-27T23:54:09.236Z,7.00
2018-04-27T23:56:39.328Z,7.13
2018-04-27T23:59:05.489Z,7.00
